createdAt,value
2022-12-18T00:00:07.399Z,87.50
2022-12-18T00:02:43.264Z,87.40
2022-12-18T00:05:11.457Z,87.80
2022-12-18T00:07:39.802Z,87.70
2022-12-18T00:10:08.975Z,87.70
2022-12-18T00:12:37.179Z,87.20
2022-12-18T00:15:05.871Z,87.30
2022-12-18T00:17:33.870Z,87.30
2022-12-18T00:20:03.362Z,87.50
2022-12-18T00:22:31.463Z,87.50
2022-12-18T00:24:59.491Z,87.70
2022-12-18T00:27:27.571Z,87.50
2022-12-18T00:29:55.563Z,87.20
2022-12-18T00:32:23.661Z,87.20
2022-12-18T00:34:51.639Z,87.60
2022-12-18T00:37:21.364Z,88.00
2022-12-18T00:39:52.640Z,88.10
2022-12-18T00:42:39.173Z,87.90
2022-12-18T00:45:12.651Z,88.10
2022-12-18T00:47:41.803Z,88.00
2022-12-18T00:50:11.147Z,88.70
2022-12-18T00:52:44.482Z,88.10
2022-12-18T00:55:13.104Z,88.10
2022-12-18T00:57:41.614Z,88.00
2022-12-18T01:00:12.010Z,88.20
2022-12-18T01:02:40.148Z,87.80
2022-12-18T01:05:10.139Z,88.30
2022-12-18T01:07:38.380Z,88.50
2022-12-18T01:10:09.687Z,88.60
2022-12-18T01:12:37.942Z,88.60
2022-12-18T01:15:08.082Z,89.00
2022-12-18T01:17:37.206Z,88.70
2022-12-18T01:20:06.958Z,88.90
2022-12-18T01:22:38.362Z,89.20
2022-12-18T01:25:11.055Z,89.20
2022-12-18T01:27:39.072Z,89.20
2022-12-18T01:30:08.332Z,88.80
2022-12-18T01:32:36.481Z,89.00
2022-12-18T01:35:05.308Z,89.00
2022-12-18T01:37:33.434Z,89.00
2022-12-18T01:40:01.539Z,89.30
2022-12-18T01:42:31.292Z,89.40
2022-12-18T01:45:02.581Z,89.50
2022-12-18T01:47:44.611Z,89.80
2022-12-18T01:50:17.053Z,89.40
2022-12-18T01:52:48.765Z,89.40
2022-12-18T01:55:20.206Z,89.20
2022-12-18T01:57:51.457Z,89.20
2022-12-18T02:00:22.119Z,89.20
2022-12-18T02:02:50.511Z,89.50
2022-12-18T02:05:36.060Z,89.30
2022-12-18T02:08:12.650Z,89.30
2022-12-18T02:10:50.023Z,89.30
2022-12-18T02:13:29.962Z,89.30
2022-12-18T02:16:04.643Z,89.60
2022-12-18T02:18:37.546Z,90.00
2022-12-18T02:21:14.401Z,90.00
2022-12-18T02:23:53.763Z,89.70
2022-12-18T02:26:29.447Z,89.90
2022-12-18T02:29:01.678Z,90.00
2022-12-18T02:31:35.436Z,90.00
2022-12-18T02:34:07.634Z,89.90
2022-12-18T02:36:42.796Z,89.90
2022-12-18T02:39:14.577Z,89.80
2022-12-18T02:41:53.502Z,89.60
2022-12-18T02:44:23.086Z,90.00
2022-12-18T02:46:53.563Z,90.10
2022-12-18T02:49:34.696Z,90.00
2022-12-18T02:52:11.432Z,90.00
2022-12-18T02:54:51.623Z,90.20
2022-12-18T02:57:30.044Z,90.20
2022-12-18T03:00:03.585Z,90.20
2022-12-18T03:02:39.814Z,90.30
2022-12-18T03:05:15.092Z,90.50
2022-12-18T03:07:49.298Z,90.40
2022-12-18T03:10:25.112Z,90.40
2022-12-18T03:12:58.309Z,90.40
2022-12-18T03:15:29.926Z,90.50
2022-12-18T03:18:12.756Z,90.40
2022-12-18T03:20:43.423Z,90.40
2022-12-18T03:23:20.788Z,90.30
2022-12-18T03:25:54.802Z,90.30
2022-12-18T03:28:26.074Z,90.20
2022-12-18T03:31:04.180Z,90.10
2022-12-18T03:33:36.825Z,90.20
2022-12-18T03:36:05.587Z,90.30
2022-12-18T03:38:34.796Z,90.30
2022-12-18T03:41:09.445Z,90.30
2022-12-18T03:43:53.039Z,90.30
2022-12-18T03:46:29.822Z,90.20
2022-12-18T03:49:03.555Z,90.30
2022-12-18T03:51:39.571Z,90.20
2022-12-18T03:54:10.696Z,90.30
2022-12-18T03:56:48.859Z,90.20
2022-12-18T03:59:21.014Z,90.20
2022-12-18T04:01:53.168Z,90.30
2022-12-18T04:04:23.594Z,90.50
2022-12-18T04:06:52.791Z,90.30
2022-12-18T04:09:22.053Z,90.20
2022-12-18T04:11:50.614Z,90.10
2022-12-18T04:14:20.123Z,90.30
2022-12-18T04:16:52.419Z,90.50
2022-12-18T04:19:25.161Z,90.40
2022-12-18T04:21:54.697Z,90.50
2022-12-18T04:24:23.045Z,90.50
2022-12-18T04:27:05.018Z,90.30
2022-12-18T04:29:41.819Z,90.30
2022-12-18T04:32:10.432Z,90.20
2022-12-18T04:34:39.360Z,90.40
2022-12-18T04:37:07.559Z,90.50
2022-12-18T04:39:36.711Z,90.60
2022-12-18T04:42:10.346Z,90.70
2022-12-18T04:44:38.540Z,90.50
2022-12-18T04:47:08.435Z,90.70
2022-12-18T04:49:36.428Z,90.50
2022-12-18T04:52:04.446Z,90.70
2022-12-18T04:54:32.457Z,90.50
2022-12-18T04:57:00.478Z,90.50
2022-12-18T04:59:28.549Z,90.30
2022-12-18T05:01:56.661Z,90.40
2022-12-18T05:04:26.190Z,90.40
2022-12-18T05:06:54.222Z,90.50
2022-12-18T05:09:22.268Z,90.50
2022-12-18T05:11:50.266Z,90.50
2022-12-18T05:14:18.657Z,90.30
2022-12-18T05:16:47.738Z,90.70
2022-12-18T05:19:15.749Z,90.60
2022-12-18T05:21:45.108Z,90.50
2022-12-18T05:24:13.965Z,90.70
2022-12-18T05:26:42.004Z,90.60
2022-12-18T05:29:13.109Z,90.50
2022-12-18T05:31:42.323Z,90.80
2022-12-18T05:34:11.620Z,90.60
2022-12-18T05:36:40.878Z,90.70
2022-12-18T05:39:10.277Z,90.60
2022-12-18T05:41:38.322Z,90.40
2022-12-18T05:44:06.382Z,90.40
2022-12-18T05:46:34.499Z,90.40
2022-12-18T05:49:02.990Z,90.50
2022-12-18T05:51:30.994Z,90.30
2022-12-18T05:53:58.986Z,90.50
2022-12-18T05:56:28.345Z,90.30
2022-12-18T05:58:56.664Z,90.20
2022-12-18T06:01:27.260Z,90.30
2022-12-18T06:03:55.857Z,90.50
2022-12-18T06:06:25.794Z,90.40
2022-12-18T06:08:55.165Z,90.30
2022-12-18T06:11:24.865Z,90.50
2022-12-18T06:13:58.919Z,90.60
2022-12-18T06:16:27.903Z,90.40
2022-12-18T06:18:57.820Z,90.70
2022-12-18T06:21:25.838Z,90.70
2022-12-18T06:23:53.894Z,90.50
2022-12-18T06:26:27.579Z,90.60
2022-12-18T06:28:57.809Z,90.70
2022-12-18T06:31:27.143Z,90.60
2022-12-18T06:33:55.258Z,90.70
2022-12-18T06:36:23.449Z,90.70
2022-12-18T06:38:51.800Z,90.80
2022-12-18T06:41:21.339Z,90.70
2022-12-18T06:43:49.485Z,90.70
2022-12-18T06:46:19.046Z,90.90
2022-12-18T06:48:50.227Z,91.00
2022-12-18T06:51:26.500Z,91.10
2022-12-18T06:53:54.905Z,90.90
2022-12-18T06:56:23.099Z,90.90
2022-12-18T06:58:54.204Z,90.90
2022-12-18T07:01:24.418Z,90.90
2022-12-18T07:03:55.008Z,91.00
2022-12-18T07:06:25.587Z,91.00
2022-12-18T07:08:55.938Z,91.10
2022-12-18T07:11:24.292Z,91.10
2022-12-18T07:13:52.347Z,91.10
2022-12-18T07:16:25.303Z,91.30
2022-12-18T07:18:56.852Z,91.20
2022-12-18T07:21:26.707Z,91.10
2022-12-18T07:23:54.857Z,91.10
2022-12-18T07:26:23.833Z,91.40
2022-12-18T07:28:52.519Z,91.30
2022-12-18T07:31:23.761Z,91.40
2022-12-18T07:33:52.792Z,91.40
2022-12-18T07:36:29.861Z,91.30
2022-12-18T07:38:57.956Z,91.50
2022-12-18T07:41:25.963Z,91.20
2022-12-18T07:43:54.202Z,91.40
2022-12-18T07:46:22.314Z,91.40
2022-12-18T07:48:50.680Z,91.40
2022-12-18T07:51:19.188Z,91.30
2022-12-18T07:53:51.805Z,91.40
2022-12-18T07:56:27.814Z,91.50
2022-12-18T07:59:00.882Z,91.60
2022-12-18T08:01:29.623Z,91.40
2022-12-18T08:03:57.757Z,91.50
2022-12-18T08:06:25.873Z,91.60
2022-12-18T08:08:56.561Z,91.60
2022-12-18T08:11:26.432Z,91.50
2022-12-18T08:13:54.917Z,91.70
2022-12-18T08:16:23.941Z,91.80
2022-12-18T08:18:54.235Z,91.90
2022-12-18T08:21:24.853Z,91.90
2022-12-18T08:23:55.856Z,92.00
2022-12-18T08:26:24.829Z,92.10
2022-12-18T08:28:53.335Z,92.10
2022-12-18T08:31:22.078Z,92.20
2022-12-18T08:33:53.152Z,92.20
2022-12-18T08:36:22.401Z,92.40
2022-12-18T08:38:50.480Z,92.50
2022-12-18T08:41:20.510Z,92.50
2022-12-18T08:44:05.832Z,92.80
2022-12-18T08:46:37.220Z,93.00
2022-12-18T08:49:05.736Z,93.00
2022-12-18T08:51:33.957Z,93.10
2022-12-18T08:54:02.343Z,93.30
2022-12-18T08:56:32.578Z,93.40
2022-12-18T08:59:00.608Z,93.40
2022-12-18T09:01:29.337Z,93.60
2022-12-18T09:03:57.693Z,93.80
2022-12-18T09:06:27.465Z,94.10
2022-12-18T09:08:55.515Z,94.30
2022-12-18T09:11:25.395Z,94.70
2022-12-18T09:13:55.735Z,94.70
2022-12-18T09:16:30.388Z,94.60
2022-12-18T09:19:01.187Z,95.10
2022-12-18T09:21:31.313Z,95.10
2022-12-18T09:24:01.120Z,95.10
2022-12-18T09:26:29.402Z,95.20
2022-12-18T09:28:58.815Z,95.20
2022-12-18T09:31:27.239Z,95.20
2022-12-18T09:33:56.993Z,95.10
2022-12-18T09:36:25.155Z,95.20
2022-12-18T09:38:54.053Z,95.20
2022-12-18T09:41:42.698Z,95.40
2022-12-18T09:44:20.899Z,95.60
2022-12-18T09:46:55.464Z,95.70
2022-12-18T09:49:28.937Z,95.60
2022-12-18T09:52:01.661Z,95.50
2022-12-18T09:54:35.657Z,95.20
2022-12-18T09:57:03.955Z,95.30
2022-12-18T09:59:37.804Z,95.40
2022-12-18T10:02:17.332Z,95.30
2022-12-18T10:04:46.743Z,95.20
2022-12-18T10:07:21.098Z,94.90
2022-12-18T10:10:00.441Z,94.90
2022-12-18T10:12:34.591Z,94.60
2022-12-18T10:15:10.301Z,94.80
2022-12-18T10:17:45.807Z,94.70
2022-12-18T10:20:17.956Z,94.80
2022-12-18T10:22:55.131Z,95.00
2022-12-18T10:25:27.486Z,94.70
2022-12-18T10:27:59.318Z,94.50
2022-12-18T10:30:28.953Z,94.50
2022-12-18T10:33:02.258Z,94.60
2022-12-18T10:35:30.509Z,94.30
2022-12-18T10:38:03.374Z,93.80
2022-12-18T10:40:31.634Z,93.70
2022-12-18T10:43:08.394Z,93.90
2022-12-18T10:45:37.731Z,94.10
2022-12-18T10:48:06.198Z,94.00
2022-12-18T10:51:09.061Z,93.80
2022-12-18T10:53:27.524Z,93.50
2022-12-18T10:55:59.722Z,93.20
2022-12-18T10:58:29.832Z,93.30
2022-12-18T11:01:08.522Z,93.40
2022-12-18T11:03:39.241Z,93.40
2022-12-18T11:06:10.054Z,93.40
2022-12-18T11:08:38.572Z,93.40
2022-12-18T11:11:17.301Z,92.90
2022-12-18T11:14:04.414Z,93.10
2022-12-18T11:16:38.346Z,93.20
2022-12-18T11:19:21.935Z,93.20
2022-12-18T11:21:50.763Z,93.20
2022-12-18T11:24:24.631Z,93.20
2022-12-18T11:26:59.379Z,93.10
2022-12-18T11:29:34.206Z,93.10
2022-12-18T11:32:29.247Z,93.20
2022-12-18T11:35:03.463Z,93.50
2022-12-18T11:37:33.396Z,93.40
2022-12-18T11:40:07.470Z,93.60
2022-12-18T11:42:41.421Z,93.50
2022-12-18T11:45:26.970Z,93.10
2022-12-18T11:48:00.988Z,93.10
2022-12-18T11:50:35.679Z,93.10
2022-12-18T11:53:06.458Z,93.00
2022-12-18T11:55:53.035Z,93.00
2022-12-18T11:58:32.426Z,93.20
2022-12-18T12:01:11.795Z,93.30
2022-12-18T12:03:55.841Z,93.40
2022-12-18T12:06:28.591Z,93.30
2022-12-18T12:09:06.244Z,93.50
2022-12-18T12:11:43.276Z,93.40
2022-12-18T12:14:35.475Z,93.30
2022-12-18T12:17:11.637Z,93.40
2022-12-18T12:19:51.295Z,93.50
2022-12-18T12:22:26.928Z,93.20
2022-12-18T12:25:13.951Z,93.30
2022-12-18T12:27:52.133Z,93.30
2022-12-18T12:30:23.358Z,93.10
2022-12-18T12:33:09.212Z,93.30
2022-12-18T12:35:48.944Z,93.30
2022-12-18T12:38:21.536Z,93.50
2022-12-18T12:41:02.097Z,93.50
2022-12-18T12:43:38.311Z,93.70
2022-12-18T12:46:10.792Z,93.70
2022-12-18T12:48:44.745Z,93.80
2022-12-18T12:51:19.451Z,94.00
2022-12-18T12:53:49.011Z,93.80
2022-12-18T12:56:19.452Z,93.90
2022-12-18T12:58:57.886Z,94.00
2022-12-18T13:01:32.803Z,93.90
2022-12-18T13:04:10.170Z,93.90
2022-12-18T13:06:47.713Z,93.90
2022-12-18T13:09:16.325Z,93.80
2022-12-18T13:12:04.346Z,94.00
2022-12-18T13:14:34.541Z,94.00
2022-12-18T13:17:32.193Z,94.20
2022-12-18T13:20:16.670Z,94.10
2022-12-18T13:22:48.895Z,94.30
2022-12-18T13:25:35.392Z,94.20
2022-12-18T13:28:09.225Z,94.10
2022-12-18T13:30:57.201Z,94.20
2022-12-18T13:36:37.978Z,94.20
2022-12-18T13:39:36.690Z,94.20
2022-12-18T13:43:00.044Z,94.10
2022-12-18T13:45:42.171Z,94.20
2022-12-18T13:48:22.924Z,94.40
2022-12-18T13:50:59.151Z,94.60
2022-12-18T13:53:31.662Z,94.60
2022-12-18T13:56:01.935Z,94.60
2022-12-18T13:58:30.055Z,94.60
2022-12-18T14:01:00.072Z,94.60
2022-12-18T14:03:31.349Z,94.60
2022-12-18T14:06:06.672Z,94.60
2022-12-18T14:08:41.402Z,94.70
2022-12-18T14:11:22.710Z,94.80
2022-12-18T14:13:51.293Z,94.70
2022-12-18T14:16:19.625Z,94.80
2022-12-18T14:18:50.971Z,95.00
2022-12-18T14:21:22.710Z,95.00
2022-12-18T14:23:51.217Z,95.00
2022-12-18T14:26:28.109Z,95.00
2022-12-18T14:28:56.409Z,94.80
2022-12-18T14:31:26.507Z,94.90
2022-12-18T14:33:55.581Z,95.00
2022-12-18T14:36:25.941Z,95.20
2022-12-18T14:38:55.593Z,95.10
2022-12-18T14:41:26.456Z,95.20
2022-12-18T14:43:56.349Z,95.20
2022-12-18T14:46:31.737Z,95.10
2022-12-18T14:49:00.803Z,95.20
2022-12-18T14:51:30.646Z,95.20
2022-12-18T14:54:01.301Z,95.40
2022-12-18T14:56:33.140Z,95.30
2022-12-18T14:59:02.742Z,95.40
2022-12-18T15:01:34.702Z,95.40
2022-12-18T15:04:04.097Z,95.40
2022-12-18T15:06:35.808Z,95.40
2022-12-18T15:09:07.534Z,95.50
2022-12-18T15:11:48.792Z,95.40
2022-12-18T15:14:32.824Z,95.40
2022-12-18T15:17:02.296Z,95.30
2022-12-18T15:19:37.572Z,95.40
2022-12-18T15:22:06.792Z,95.50
2022-12-18T15:24:35.269Z,95.60
2022-12-18T15:27:04.898Z,95.50
2022-12-18T15:29:32.889Z,95.50
2022-12-18T15:32:02.812Z,95.50
2022-12-18T15:34:31.703Z,95.60
2022-12-18T15:36:59.805Z,95.70
2022-12-18T15:39:27.926Z,95.80
2022-12-18T15:42:13.703Z,95.90
2022-12-18T15:44:43.062Z,96.00
2022-12-18T15:47:13.974Z,96.00
2022-12-18T15:49:41.999Z,96.00
2022-12-18T15:52:14.047Z,96.10
2022-12-18T15:54:59.462Z,96.20
2022-12-18T15:57:27.552Z,96.10
2022-12-18T15:59:59.294Z,96.00
2022-12-18T16:02:28.894Z,96.20
2022-12-18T16:04:57.031Z,96.00
2022-12-18T16:07:28.160Z,96.10
2022-12-18T16:09:58.807Z,96.00
2022-12-18T16:12:28.452Z,96.10
2022-12-18T16:14:57.856Z,96.10
2022-12-18T16:17:25.898Z,96.20
2022-12-18T16:19:53.910Z,96.20
2022-12-18T16:22:24.378Z,96.20
2022-12-18T16:24:54.066Z,96.20
2022-12-18T16:27:22.532Z,96.30
2022-12-18T16:29:50.691Z,96.30
2022-12-18T16:32:21.810Z,96.30
2022-12-18T16:34:49.922Z,96.30
2022-12-18T16:37:18.294Z,96.30
2022-12-18T16:39:46.652Z,96.30
2022-12-18T16:42:17.404Z,96.30
2022-12-18T16:44:46.866Z,96.30
2022-12-18T16:47:15.588Z,96.40
2022-12-18T16:49:45.778Z,96.40
2022-12-18T16:52:14.828Z,96.50
2022-12-18T16:54:42.904Z,96.40
2022-12-18T16:57:13.977Z,96.40
2022-12-18T16:59:42.164Z,96.40
2022-12-18T17:02:15.771Z,96.30
2022-12-18T17:04:47.164Z,96.20
2022-12-18T17:07:16.017Z,96.30
2022-12-18T17:09:44.351Z,96.30
2022-12-18T17:12:12.387Z,96.30
2022-12-18T17:14:40.530Z,96.30
2022-12-18T17:17:24.257Z,96.30
2022-12-18T17:19:53.832Z,96.40
2022-12-18T17:22:23.203Z,96.50
2022-12-18T17:24:51.325Z,96.50
2022-12-18T17:27:19.350Z,96.50
2022-12-18T17:29:48.821Z,96.50
2022-12-18T17:32:17.797Z,96.40
2022-12-18T17:34:46.077Z,96.50
2022-12-18T17:37:16.077Z,96.50
2022-12-18T17:39:44.275Z,96.80
2022-12-18T17:42:15.333Z,96.60
2022-12-18T17:44:44.058Z,96.60
2022-12-18T17:47:12.957Z,96.70
2022-12-18T17:49:41.216Z,96.80
2022-12-18T17:52:09.206Z,96.80
2022-12-18T17:54:41.295Z,96.80
2022-12-18T17:57:09.292Z,96.90
2022-12-18T17:59:37.370Z,96.90
2022-12-18T18:02:05.538Z,96.90
2022-12-18T18:04:34.095Z,97.00
2022-12-18T18:07:02.098Z,97.00
2022-12-18T18:09:30.111Z,97.00
2022-12-18T18:12:17.166Z,97.00
2022-12-18T18:14:45.468Z,96.90
2022-12-18T18:17:13.739Z,97.00
2022-12-18T18:19:42.718Z,97.10
2022-12-18T18:22:12.903Z,97.00
2022-12-18T18:24:43.495Z,97.00
2022-12-18T18:27:12.907Z,97.10
2022-12-18T18:29:41.077Z,97.10
2022-12-18T18:32:09.148Z,97.00
2022-12-18T18:34:37.617Z,97.10
2022-12-18T18:37:05.882Z,97.20
2022-12-18T18:39:33.932Z,97.20
2022-12-18T18:42:02.009Z,97.30
2022-12-18T18:44:31.980Z,97.30
2022-12-18T18:47:00.656Z,97.30
2022-12-18T18:49:30.145Z,97.40
2022-12-18T18:52:00.243Z,97.30
2022-12-18T18:54:28.481Z,97.30
2022-12-18T18:57:19.275Z,97.30
2022-12-18T18:59:47.248Z,97.40
2022-12-18T19:02:16.034Z,97.40
2022-12-18T19:04:46.179Z,97.30
2022-12-18T19:07:22.315Z,97.30
2022-12-18T19:10:05.061Z,97.60
2022-12-18T19:12:52.247Z,97.60
2022-12-18T19:15:21.897Z,97.50
2022-12-18T19:17:50.247Z,97.40
2022-12-18T19:20:18.560Z,97.70
2022-12-18T19:22:55.269Z,97.50
2022-12-18T19:25:35.733Z,97.50
2022-12-18T19:28:08.272Z,97.60
2022-12-18T19:30:56.407Z,97.60
2022-12-18T19:33:44.817Z,97.60
2022-12-18T19:36:16.030Z,97.60
2022-12-18T19:38:45.468Z,97.50
2022-12-18T19:41:15.166Z,97.50
2022-12-18T19:43:43.249Z,97.50
2022-12-18T19:46:15.336Z,97.70
2022-12-18T19:48:44.340Z,97.70
2022-12-18T19:51:15.635Z,97.70
2022-12-18T19:53:43.724Z,97.50
2022-12-18T19:56:14.950Z,97.50
2022-12-18T19:58:43.678Z,97.50
2022-12-18T20:01:14.170Z,97.40
2022-12-18T20:03:46.715Z,97.30
2022-12-18T20:06:21.882Z,97.30
2022-12-18T20:08:50.856Z,97.30
2022-12-18T20:11:19.488Z,97.30
2022-12-18T20:13:47.517Z,97.30
2022-12-18T20:16:16.919Z,97.50
2022-12-18T20:18:45.459Z,97.30
2022-12-18T20:21:14.328Z,97.20
2022-12-18T20:23:43.225Z,97.20
2022-12-18T20:26:12.063Z,97.30
2022-12-18T20:28:40.734Z,97.30
2022-12-18T20:31:10.605Z,97.30
2022-12-18T20:33:44.552Z,97.40
2022-12-18T20:36:21.428Z,97.40
2022-12-18T20:38:54.659Z,97.50
2022-12-18T20:41:25.369Z,97.50
2022-12-18T20:43:53.423Z,97.50
2022-12-18T20:46:21.565Z,97.50
2022-12-18T20:48:51.138Z,97.50
2022-12-18T20:51:21.668Z,97.50
2022-12-18T20:53:50.017Z,97.40
2022-12-18T20:56:21.621Z,97.40
2022-12-18T20:58:51.304Z,97.60
2022-12-18T21:01:27.558Z,97.30
2022-12-18T21:03:57.017Z,97.40
2022-12-18T21:06:25.728Z,97.30
2022-12-18T21:08:53.731Z,97.30
2022-12-18T21:11:48.192Z,97.30
2022-12-18T21:14:18.365Z,97.40
2022-12-18T21:16:46.553Z,97.30
2022-12-18T21:19:18.688Z,97.40
2022-12-18T21:21:47.599Z,97.30
2022-12-18T21:24:16.068Z,97.30
2022-12-18T21:26:46.191Z,97.30
2022-12-18T21:29:17.091Z,97.40
2022-12-18T21:31:46.344Z,97.50
2022-12-18T21:34:18.542Z,97.30
2022-12-18T21:36:47.266Z,97.20
2022-12-18T21:39:16.451Z,97.00
2022-12-18T21:42:02.067Z,97.00
2022-12-18T21:44:30.403Z,97.00
2022-12-18T21:47:10.808Z,97.00
2022-12-18T21:49:47.007Z,97.00
2022-12-18T21:52:15.064Z,97.20
2022-12-18T21:54:43.110Z,97.10
2022-12-18T21:57:13.264Z,97.10
2022-12-18T21:59:43.197Z,97.10
2022-12-18T22:02:14.243Z,97.20
2022-12-18T22:04:43.027Z,97.20
2022-12-18T22:07:12.576Z,97.20
2022-12-18T22:09:40.646Z,97.30
2022-12-18T22:12:09.936Z,97.30
2022-12-18T22:14:38.304Z,97.30
2022-12-18T22:17:06.314Z,97.30
2022-12-18T22:19:39.617Z,97.40
2022-12-18T22:22:12.090Z,97.40
2022-12-18T22:24:40.074Z,97.50
2022-12-18T22:27:08.104Z,97.60
2022-12-18T22:29:54.045Z,97.50
2022-12-18T22:32:30.781Z,97.60
2022-12-18T22:35:05.869Z,97.40
2022-12-18T22:37:37.626Z,97.70
2022-12-18T22:40:07.361Z,97.50
2022-12-18T22:42:35.592Z,97.50
2022-12-18T22:45:03.639Z,97.40
2022-12-18T22:47:31.679Z,97.40
2022-12-18T22:49:59.717Z,97.50
2022-12-18T22:52:27.743Z,97.50
2022-12-18T22:54:57.091Z,97.40
2022-12-18T22:57:25.882Z,97.40
2022-12-18T22:59:53.850Z,97.40
2022-12-18T23:02:21.981Z,97.50
2022-12-18T23:04:50.158Z,97.50
2022-12-18T23:07:18.546Z,97.40
2022-12-18T23:09:46.595Z,97.30
2022-12-18T23:12:19.479Z,97.30
2022-12-18T23:14:47.819Z,97.50
2022-12-18T23:17:15.904Z,97.50
2022-12-18T23:19:48.835Z,97.40
2022-12-18T23:22:17.366Z,97.40
2022-12-18T23:24:45.559Z,97.30
2022-12-18T23:27:13.630Z,97.30
2022-12-18T23:29:42.977Z,97.20
2022-12-18T23:32:13.295Z,97.30
2022-12-18T23:34:41.414Z,97.40
2022-12-18T23:37:09.421Z,97.40
2022-12-18T23:39:37.468Z,97.20
2022-12-18T23:42:05.623Z,97.20
2022-12-18T23:44:33.917Z,97.30
2022-12-18T23:47:03.277Z,97.30
2022-12-18T23:49:31.403Z,97.30
2022-12-18T23:51:59.559Z,97.40
2022-12-18T23:54:32.793Z,97.30
2022-12-18T23:57:02.431Z,97.30
2022-12-18T23:59:30.447Z,97.30
